sensor_id;sensor_type;location;lat;lon;timestamp;P1;durP1;ratioP1;P2;durP2;ratioP2
4686;SDS011;2357;47.316;-1.348;2023-05-03T00:02:08;1.80;;;1.70;;
4686;SDS011;2357;47.316;-1.348;2023-05-03T00:04:35;1.20;;;1.20;;
4686;SDS011;2357;47.316;-1.348;2023-05-03T00:07:01;2.30;;;1.60;;
4686;SDS011;2357;47.316;-1.348;2023-05-03T00:09:27;1.70;;;1.60;;
4686;SDS011;2357;47.316;-1.348;2023-05-03T00:11:53;1.90;;;1.50;;
4686;SDS011;2357;47.316;-1.348;2023-05-03T00:14:19;2.93;;;1.60;;
4686;SDS011;2357;47.316;-1.348;2023-05-03T00:16:45;2.43;;;2.13;;
4686;SDS011;2357;47.316;-1.348;2023-05-03T00:19:10;1.93;;;1.40;;
4686;SDS011;2357;47.316;-1.348;2023-05-03T00:21:36;3.47;;;1.47;;
4686;SDS011;2357;47.316;-1.348;2023-05-03T00:24:01;1.37;;;1.27;;
4686;SDS011;2357;47.316;-1.348;2023-05-03T00:26:27;2.80;;;1.83;;
4686;SDS011;2357;47.316;-1.348;2023-05-03T00:28:53;1.47;;;1.37;;
4686;SDS011;2357;47.316;-1.348;2023-05-03T00:31:19;1.90;;;1.53;;
4686;SDS011;2357;47.316;-1.348;2023-05-03T00:33:44;4.80;;;2.43;;
4686;SDS011;2357;47.316;-1.348;2023-05-03T00:36:11;8.60;;;1.97;;
4686;SDS011;2357;47.316;-1.348;2023-05-03T00:38:38;1.70;;;1.60;;
4686;SDS011;2357;47.316;-1.348;2023-05-03T00:41:05;4.60;;;1.60;;
4686;SDS011;2357;47.316;-1.348;2023-05-03T00:43:33;1.67;;;1.57;;
4686;SDS011;2357;47.316;-1.348;2023-05-03T00:45:59;2.50;;;1.53;;
4686;SDS011;2357;47.316;-1.348;2023-05-03T00:48:27;1.97;;;1.87;;
4686;SDS011;2357;47.316;-1.348;2023-05-03T00:50:53;1.70;;;1.60;;
4686;SDS011;2357;47.316;-1.348;2023-05-03T00:53:21;2.53;;;1.60;;
4686;SDS011;2357;47.316;-1.348;2023-05-03T00:55:47;2.60;;;2.07;;
4686;SDS011;2357;47.316;-1.348;2023-05-03T00:58:16;1.73;;;1.63;;
4686;SDS011;2357;47.316;-1.348;2023-05-03T01:00:41;2.77;;;2.23;;
4686;SDS011;2357;47.316;-1.348;2023-05-03T01:03:07;1.60;;;1.50;;
4686;SDS011;2357;47.316;-1.348;2023-05-03T01:05:37;4.80;;;2.17;;
4686;SDS011;2357;47.316;-1.348;2023-05-03T01:08:31;4.00;;;1.80;;
4686;SDS011;2357;47.316;-1.348;2023-05-03T01:16:47;1.77;;;1.67;;
4686;SDS011;2357;47.316;-1.348;2023-05-03T01:19:27;1.77;;;1.67;;
4686;SDS011;2357;47.316;-1.348;2023-05-03T01:22:02;2.70;;;1.23;;
4686;SDS011;2357;47.316;-1.348;2023-05-03T01:24:58;1.73;;;1.63;;
4686;SDS011;2357;47.316;-1.348;2023-05-03T01:27:30;2.67;;;2.20;;
4686;SDS011;2357;47.316;-1.348;2023-05-03T01:29:55;2.87;;;1.80;;
4686;SDS011;2357;47.316;-1.348;2023-05-03T01:32:22;3.37;;;1.40;;
4686;SDS011;2357;47.316;-1.348;2023-05-03T01:35:03;1.87;;;1.73;;
4686;SDS011;2357;47.316;-1.348;2023-05-03T01:37:33;3.87;;;2.17;;
4686;SDS011;2357;47.316;-1.348;2023-05-03T01:40:04;1.80;;;1.70;;
4686;SDS011;2357;47.316;-1.348;2023-05-03T01:42:33;2.07;;;1.97;;
4686;SDS011;2357;47.316;-1.348;2023-05-03T01:45:01;2.60;;;1.50;;
4686;SDS011;2357;47.316;-1.348;2023-05-03T01:47:29;3.43;;;2.57;;
4686;SDS011;2357;47.316;-1.348;2023-05-03T01:49:54;2.80;;;1.63;;
4686;SDS011;2357;47.316;-1.348;2023-05-03T01:52:21;4.37;;;1.80;;
4686;SDS011;2357;47.316;-1.348;2023-05-03T01:54:47;6.73;;;2.37;;
4686;SDS011;2357;47.316;-1.348;2023-05-03T01:57:13;3.33;;;1.80;;
4686;SDS011;2357;47.316;-1.348;2023-05-03T01:59:38;2.20;;;1.93;;
4686;SDS011;2357;47.316;-1.348;2023-05-03T02:02:04;2.50;;;1.80;;
4686;SDS011;2357;47.316;-1.348;2023-05-03T02:04:30;1.90;;;1.80;;
4686;SDS011;2357;47.316;-1.348;2023-05-03T02:06:56;7.90;;;2.20;;
4686;SDS011;2357;47.316;-1.348;2023-05-03T02:09:21;2.53;;;2.33;;
4686;SDS011;2357;47.316;-1.348;2023-05-03T02:11:48;1.93;;;1.70;;
4686;SDS011;2357;47.316;-1.348;2023-05-03T02:14:13;1.97;;;1.80;;
4686;SDS011;2357;47.316;-1.348;2023-05-03T02:16:39;3.13;;;2.20;;
4686;SDS011;2357;47.316;-1.348;2023-05-03T02:19:04;3.57;;;2.53;;
4686;SDS011;2357;47.316;-1.348;2023-05-03T02:21:32;2.80;;;2.57;;
4686;SDS011;2357;47.316;-1.348;2023-05-03T02:23:58;3.53;;;2.40;;
4686;SDS011;2357;47.316;-1.348;2023-05-03T02:26:24;3.60;;;1.90;;
4686;SDS011;2357;47.316;-1.348;2023-05-03T02:28:50;2.23;;;2.03;;
4686;SDS011;2357;47.316;-1.348;2023-05-03T02:31:16;2.10;;;1.73;;
4686;SDS011;2357;47.316;-1.348;2023-05-03T02:33:42;3.60;;;1.90;;
4686;SDS011;2357;47.316;-1.348;2023-05-03T02:36:07;2.10;;;2.00;;
4686;SDS011;2357;47.316;-1.348;2023-05-03T02:38:33;2.70;;;2.60;;
4686;SDS011;2357;47.316;-1.348;2023-05-03T02:40:59;6.53;;;2.27;;
4686;SDS011;2357;47.316;-1.348;2023-05-03T02:43:24;5.83;;;2.37;;
4686;SDS011;2357;47.316;-1.348;2023-05-03T02:45:50;3.30;;;1.93;;
4686;SDS011;2357;47.316;-1.348;2023-05-03T02:48:16;4.80;;;2.00;;
4686;SDS011;2357;47.316;-1.348;2023-05-03T02:50:41;2.70;;;1.77;;
4686;SDS011;2357;47.316;-1.348;2023-05-03T02:53:07;2.67;;;2.33;;
4686;SDS011;2357;47.316;-1.348;2023-05-03T02:55:33;3.80;;;1.93;;
4686;SDS011;2357;47.316;-1.348;2023-05-03T02:58:00;2.33;;;1.57;;
4686;SDS011;2357;47.316;-1.348;2023-05-03T03:00:25;2.37;;;2.27;;
4686;SDS011;2357;47.316;-1.348;2023-05-03T03:02:51;2.33;;;1.90;;
4686;SDS011;2357;47.316;-1.348;2023-05-03T03:05:17;2.00;;;1.90;;
4686;SDS011;2357;47.316;-1.348;2023-05-03T03:07:42;3.50;;;2.13;;
4686;SDS011;2357;47.316;-1.348;2023-05-03T03:10:08;1.90;;;1.80;;
4686;SDS011;2357;47.316;-1.348;2023-05-03T03:12:34;1.97;;;1.87;;
4686;SDS011;2357;47.316;-1.348;2023-05-03T03:15:01;2.17;;;1.97;;
4686;SDS011;2357;47.316;-1.348;2023-05-03T03:17:27;2.50;;;2.10;;
4686;SDS011;2357;47.316;-1.348;2023-05-03T03:19:53;3.70;;;2.37;;
4686;SDS011;2357;47.316;-1.348;2023-05-03T03:22:19;1.87;;;1.77;;
4686;SDS011;2357;47.316;-1.348;2023-05-03T03:24:44;5.00;;;2.63;;
4686;SDS011;2357;47.316;-1.348;2023-05-03T03:27:10;2.50;;;2.30;;
4686;SDS011;2357;47.316;-1.348;2023-05-03T03:29:36;2.30;;;2.17;;
4686;SDS011;2357;47.316;-1.348;2023-05-03T03:32:01;3.80;;;2.60;;
4686;SDS011;2357;47.316;-1.348;2023-05-03T03:34:27;5.23;;;2.30;;
4686;SDS011;2357;47.316;-1.348;2023-05-03T03:36:52;4.33;;;2.43;;
4686;SDS011;2357;47.316;-1.348;2023-05-03T03:39:18;4.37;;;2.80;;
4686;SDS011;2357;47.316;-1.348;2023-05-03T03:41:44;3.47;;;3.17;;
4686;SDS011;2357;47.316;-1.348;2023-05-03T03:44:09;3.93;;;2.20;;
4686;SDS011;2357;47.316;-1.348;2023-05-03T03:46:35;12.33;;;2.87;;
4686;SDS011;2357;47.316;-1.348;2023-05-03T03:49:01;3.10;;;2.90;;
4686;SDS011;2357;47.316;-1.348;2023-05-03T03:51:26;6.53;;;3.07;;
4686;SDS011;2357;47.316;-1.348;2023-05-03T03:53:52;5.53;;;2.10;;
4686;SDS011;2357;47.316;-1.348;2023-05-03T03:56:18;2.97;;;2.67;;
4686;SDS011;2357;47.316;-1.348;2023-05-03T03:58:43;2.37;;;2.20;;
4686;SDS011;2357;47.316;-1.348;2023-05-03T04:01:09;2.87;;;2.37;;
4686;SDS011;2357;47.316;-1.348;2023-05-03T04:03:36;3.57;;;2.90;;
4686;SDS011;2357;47.316;-1.348;2023-05-03T04:06:01;3.17;;;2.50;;
4686;SDS011;2357;47.316;-1.348;2023-05-03T04:08:27;2.53;;;2.40;;
4686;SDS011;2357;47.316;-1.348;2023-05-03T04:10:53;4.10;;;2.77;;
4686;SDS011;2357;47.316;-1.348;2023-05-03T04:13:18;3.50;;;2.60;;
4686;SDS011;2357;47.316;-1.348;2023-05-03T04:15:44;3.27;;;2.90;;
4686;SDS011;2357;47.316;-1.348;2023-05-03T04:18:10;11.00;;;2.70;;
4686;SDS011;2357;47.316;-1.348;2023-05-03T04:20:35;3.83;;;2.73;;
4686;SDS011;2357;47.316;-1.348;2023-05-03T04:23:01;3.37;;;2.47;;
4686;SDS011;2357;47.316;-1.348;2023-05-03T04:25:27;9.80;;;3.73;;
4686;SDS011;2357;47.316;-1.348;2023-05-03T04:27:55;3.23;;;2.93;;
4686;SDS011;2357;47.316;-1.348;2023-05-03T04:30:21;2.77;;;2.63;;
4686;SDS011;2357;47.316;-1.348;2023-05-03T04:32:49;4.37;;;3.00;;
4686;SDS011;2357;47.316;-1.348;2023-05-03T04:35:18;4.30;;;2.90;;
4686;SDS011;2357;47.316;-1.348;2023-05-03T04:37:44;3.30;;;3.00;;
4686;SDS011;2357;47.316;-1.348;2023-05-03T04:40:10;4.03;;;3.23;;
4686;SDS011;2357;47.316;-1.348;2023-05-03T04:42:36;3.20;;;2.90;;
4686;SDS011;2357;47.316;-1.348;2023-05-03T04:45:02;4.10;;;2.77;;
4686;SDS011;2357;47.316;-1.348;2023-05-03T04:47:31;6.00;;;3.47;;
4686;SDS011;2357;47.316;-1.348;2023-05-03T04:49:57;3.30;;;2.97;;
4686;SDS011;2357;47.316;-1.348;2023-05-03T04:52:23;8.83;;;3.30;;
4686;SDS011;2357;47.316;-1.348;2023-05-03T04:54:49;3.90;;;3.17;;
4686;SDS011;2357;47.316;-1.348;2023-05-03T04:57:15;11.17;;;3.10;;
4686;SDS011;2357;47.316;-1.348;2023-05-03T04:59:40;4.90;;;3.07;;
4686;SDS011;2357;47.316;-1.348;2023-05-03T05:02:06;5.57;;;3.10;;
4686;SDS011;2357;47.316;-1.348;2023-05-03T05:04:32;5.80;;;3.00;;
4686;SDS011;2357;47.316;-1.348;2023-05-03T05:06:57;5.70;;;3.77;;
4686;SDS011;2357;47.316;-1.348;2023-05-03T05:09:26;4.43;;;3.33;;
4686;SDS011;2357;47.316;-1.348;2023-05-03T05:11:53;4.47;;;3.17;;
4686;SDS011;2357;47.316;-1.348;2023-05-03T05:14:19;4.00;;;3.60;;
4686;SDS011;2357;47.316;-1.348;2023-05-03T05:16:45;4.33;;;3.60;;
4686;SDS011;2357;47.316;-1.348;2023-05-03T05:19:11;6.13;;;3.60;;
4686;SDS011;2357;47.316;-1.348;2023-05-03T05:21:37;7.47;;;3.50;;
4686;SDS011;2357;47.316;-1.348;2023-05-03T05:24:03;4.13;;;2.87;;
4686;SDS011;2357;47.316;-1.348;2023-05-03T05:26:29;3.53;;;3.23;;
4686;SDS011;2357;47.316;-1.348;2023-05-03T05:28:55;3.53;;;3.23;;
4686;SDS011;2357;47.316;-1.348;2023-05-03T05:31:21;4.13;;;3.83;;
4686;SDS011;2357;47.316;-1.348;2023-05-03T05:33:48;5.03;;;3.67;;
4686;SDS011;2357;47.316;-1.348;2023-05-03T05:36:13;5.40;;;3.97;;
4686;SDS011;2357;47.316;-1.348;2023-05-03T05:38:40;14.03;;;3.47;;
4686;SDS011;2357;47.316;-1.348;2023-05-03T05:41:06;6.23;;;4.60;;
4686;SDS011;2357;47.316;-1.348;2023-05-03T05:43:32;4.97;;;3.90;;
4686;SDS011;2357;47.316;-1.348;2023-05-03T05:45:57;4.27;;;3.87;;
4686;SDS011;2357;47.316;-1.348;2023-05-03T05:48:23;4.53;;;3.50;;
4686;SDS011;2357;47.316;-1.348;2023-05-03T05:50:49;9.07;;;4.23;;
4686;SDS011;2357;47.316;-1.348;2023-05-03T05:53:15;4.17;;;3.70;;
4686;SDS011;2357;47.316;-1.348;2023-05-03T05:55:41;4.20;;;3.80;;
4686;SDS011;2357;47.316;-1.348;2023-05-03T05:58:07;5.30;;;4.37;;
4686;SDS011;2357;47.316;-1.348;2023-05-03T06:00:33;3.87;;;3.60;;
4686;SDS011;2357;47.316;-1.348;2023-05-03T06:03:00;4.10;;;3.73;;
4686;SDS011;2357;47.316;-1.348;2023-05-03T06:05:25;3.57;;;3.27;;
4686;SDS011;2357;47.316;-1.348;2023-05-03T06:07:51;5.37;;;3.70;;
4686;SDS011;2357;47.316;-1.348;2023-05-03T06:10:16;3.47;;;3.27;;
4686;SDS011;2357;47.316;-1.348;2023-05-03T06:12:42;4.90;;;4.40;;
4686;SDS011;2357;47.316;-1.348;2023-05-03T06:15:08;4.17;;;3.77;;
4686;SDS011;2357;47.316;-1.348;2023-05-03T06:17:34;5.23;;;3.93;;
4686;SDS011;2357;47.316;-1.348;2023-05-03T06:20:00;9.17;;;4.47;;
4686;SDS011;2357;47.316;-1.348;2023-05-03T06:22:26;5.40;;;3.93;;
4686;SDS011;2357;47.316;-1.348;2023-05-03T06:24:51;5.83;;;3.83;;
4686;SDS011;2357;47.316;-1.348;2023-05-03T06:27:17;5.83;;;4.00;;
4686;SDS011;2357;47.316;-1.348;2023-05-03T06:29:43;6.47;;;4.00;;
4686;SDS011;2357;47.316;-1.348;2023-05-03T06:32:09;4.93;;;4.10;;
4686;SDS011;2357;47.316;-1.348;2023-05-03T06:34:34;7.27;;;4.07;;
4686;SDS011;2357;47.316;-1.348;2023-05-03T06:37:01;6.73;;;3.93;;
4686;SDS011;2357;47.316;-1.348;2023-05-03T06:39:27;4.30;;;3.90;;
4686;SDS011;2357;47.316;-1.348;2023-05-03T06:41:53;6.03;;;4.03;;
4686;SDS011;2357;47.316;-1.348;2023-05-03T06:44:18;10.33;;;3.90;;
4686;SDS011;2357;47.316;-1.348;2023-05-03T06:46:44;4.90;;;3.90;;
4686;SDS011;2357;47.316;-1.348;2023-05-03T06:49:10;4.70;;;3.80;;
4686;SDS011;2357;47.316;-1.348;2023-05-03T06:51:35;5.00;;;3.80;;
4686;SDS011;2357;47.316;-1.348;2023-05-03T06:54:01;5.13;;;4.13;;
4686;SDS011;2357;47.316;-1.348;2023-05-03T06:56:33;5.03;;;4.10;;
4686;SDS011;2357;47.316;-1.348;2023-05-03T06:59:00;4.00;;;3.70;;
4686;SDS011;2357;47.316;-1.348;2023-05-03T07:01:26;4.53;;;3.90;;
4686;SDS011;2357;47.316;-1.348;2023-05-03T07:03:52;7.57;;;4.27;;
4686;SDS011;2357;47.316;-1.348;2023-05-03T07:06:18;9.67;;;4.50;;
4686;SDS011;2357;47.316;-1.348;2023-05-03T07:08:44;4.00;;;3.60;;
4686;SDS011;2357;47.316;-1.348;2023-05-03T07:11:09;5.23;;;3.77;;
4686;SDS011;2357;47.316;-1.348;2023-05-03T07:13:35;9.67;;;4.90;;
4686;SDS011;2357;47.316;-1.348;2023-05-03T07:16:01;5.53;;;3.87;;
4686;SDS011;2357;47.316;-1.348;2023-05-03T07:18:27;4.70;;;3.80;;
4686;SDS011;2357;47.316;-1.348;2023-05-03T07:20:52;4.00;;;3.63;;
4686;SDS011;2357;47.316;-1.348;2023-05-03T07:23:18;5.90;;;4.00;;
4686;SDS011;2357;47.316;-1.348;2023-05-03T07:25:43;5.60;;;4.23;;
4686;SDS011;2357;47.316;-1.348;2023-05-03T07:28:12;4.60;;;4.20;;
4686;SDS011;2357;47.316;-1.348;2023-05-03T07:30:37;4.60;;;3.60;;
4686;SDS011;2357;47.316;-1.348;2023-05-03T07:33:03;3.70;;;3.40;;
4686;SDS011;2357;47.316;-1.348;2023-05-03T07:35:29;5.33;;;3.77;;
4686;SDS011;2357;47.316;-1.348;2023-05-03T07:37:56;5.30;;;4.40;;
4686;SDS011;2357;47.316;-1.348;2023-05-03T07:40:22;3.67;;;3.40;;
4686;SDS011;2357;47.316;-1.348;2023-05-03T07:42:48;5.10;;;3.57;;
4686;SDS011;2357;47.316;-1.348;2023-05-03T07:45:14;7.63;;;3.90;;
4686;SDS011;2357;47.316;-1.348;2023-05-03T07:47:39;3.97;;;3.43;;
4686;SDS011;2357;47.316;-1.348;2023-05-03T07:50:05;6.17;;;4.00;;
4686;SDS011;2357;47.316;-1.348;2023-05-03T07:52:37;6.50;;;3.50;;
4686;SDS011;2357;47.316;-1.348;2023-05-03T07:55:05;4.20;;;3.80;;
4686;SDS011;2357;47.316;-1.348;2023-05-03T07:57:31;7.47;;;3.53;;
4686;SDS011;2357;47.316;-1.348;2023-05-03T07:59:57;8.83;;;3.60;;
4686;SDS011;2357;47.316;-1.348;2023-05-03T08:02:22;5.30;;;3.43;;
4686;SDS011;2357;47.316;-1.348;2023-05-03T08:04:48;4.00;;;3.43;;
4686;SDS011;2357;47.316;-1.348;2023-05-03T08:07:14;3.83;;;3.53;;
4686;SDS011;2357;47.316;-1.348;2023-05-03T08:09:41;10.10;;;3.67;;
4686;SDS011;2357;47.316;-1.348;2023-05-03T08:12:07;6.23;;;3.30;;
4686;SDS011;2357;47.316;-1.348;2023-05-03T08:14:33;3.77;;;3.47;;
4686;SDS011;2357;47.316;-1.348;2023-05-03T08:16:59;3.77;;;3.10;;
4686;SDS011;2357;47.316;-1.348;2023-05-03T08:19:25;6.10;;;3.00;;
4686;SDS011;2357;47.316;-1.348;2023-05-03T08:21:50;3.43;;;3.20;;
4686;SDS011;2357;47.316;-1.348;2023-05-03T08:24:18;3.60;;;3.30;;
4686;SDS011;2357;47.316;-1.348;2023-05-03T08:26:44;9.60;;;2.77;;
4686;SDS011;2357;47.316;-1.348;2023-05-03T08:29:12;4.07;;;2.70;;
4686;SDS011;2357;47.316;-1.348;2023-05-03T08:31:38;6.13;;;3.50;;
4686;SDS011;2357;47.316;-1.348;2023-05-03T08:34:04;2.77;;;2.50;;
4686;SDS011;2357;47.316;-1.348;2023-05-03T08:36:31;5.53;;;3.30;;
4686;SDS011;2357;47.316;-1.348;2023-05-03T08:38:56;3.30;;;3.00;;
4686;SDS011;2357;47.316;-1.348;2023-05-03T08:41:29;3.43;;;3.13;;
4686;SDS011;2357;47.316;-1.348;2023-05-03T08:43:55;17.40;;;2.90;;
4686;SDS011;2357;47.316;-1.348;2023-05-03T08:46:22;5.50;;;3.20;;
4686;SDS011;2357;47.316;-1.348;2023-05-03T08:48:51;5.40;;;4.00;;
4686;SDS011;2357;47.316;-1.348;2023-05-03T08:51:19;4.57;;;3.20;;
4686;SDS011;2357;47.316;-1.348;2023-05-03T08:53:46;5.70;;;3.03;;
4686;SDS011;2357;47.316;-1.348;2023-05-03T08:56:15;3.63;;;3.17;;
4686;SDS011;2357;47.316;-1.348;2023-05-03T08:58:54;9.30;;;3.50;;
4686;SDS011;2357;47.316;-1.348;2023-05-03T09:01:19;3.53;;;3.23;;
4686;SDS011;2357;47.316;-1.348;2023-05-03T09:03:49;3.30;;;3.00;;
4686;SDS011;2357;47.316;-1.348;2023-05-03T09:06:22;4.60;;;3.20;;
4686;SDS011;2357;47.316;-1.348;2023-05-03T09:08:51;6.17;;;3.13;;
4686;SDS011;2357;47.316;-1.348;2023-05-03T09:11:21;2.97;;;2.70;;
4686;SDS011;2357;47.316;-1.348;2023-05-03T09:13:50;3.13;;;2.93;;
4686;SDS011;2357;47.316;-1.348;2023-05-03T09:16:25;8.13;;;4.27;;
4686;SDS011;2357;47.316;-1.348;2023-05-03T09:18:56;3.87;;;3.47;;
4686;SDS011;2357;47.316;-1.348;2023-05-03T09:21:26;3.63;;;2.80;;
4686;SDS011;2357;47.316;-1.348;2023-05-03T09:23:53;2.73;;;2.53;;
4686;SDS011;2357;47.316;-1.348;2023-05-03T09:28:58;16.03;;;3.57;;
4686;SDS011;2357;47.316;-1.348;2023-05-03T09:31:26;8.93;;;3.60;;
4686;SDS011;2357;47.316;-1.348;2023-05-03T09:33:52;3.07;;;2.87;;
4686;SDS011;2357;47.316;-1.348;2023-05-03T09:36:18;2.77;;;2.57;;
4686;SDS011;2357;47.316;-1.348;2023-05-03T09:38:43;3.37;;;3.07;;
4686;SDS011;2357;47.316;-1.348;2023-05-03T09:41:09;5.07;;;2.93;;
4686;SDS011;2357;47.316;-1.348;2023-05-03T09:43:35;3.53;;;3.23;;
4686;SDS011;2357;47.316;-1.348;2023-05-03T09:46:16;4.07;;;2.60;;
4686;SDS011;2357;47.316;-1.348;2023-05-03T09:48:43;2.77;;;2.67;;
4686;SDS011;2357;47.316;-1.348;2023-05-03T09:51:09;4.57;;;3.60;;
4686;SDS011;2357;47.316;-1.348;2023-05-03T09:53:36;5.23;;;3.20;;
4686;SDS011;2357;47.316;-1.348;2023-05-03T09:56:03;3.33;;;2.80;;
4686;SDS011;2357;47.316;-1.348;2023-05-03T09:58:36;6.83;;;3.10;;
4686;SDS011;2357;47.316;-1.348;2023-05-03T10:01:03;3.60;;;3.30;;
4686;SDS011;2357;47.316;-1.348;2023-05-03T10:06:17;3.80;;;2.97;;
4686;SDS011;2357;47.316;-1.348;2023-05-03T10:08:48;6.53;;;3.37;;
4686;SDS011;2357;47.316;-1.348;2023-05-03T10:11:18;2.50;;;2.30;;
4686;SDS011;2357;47.316;-1.348;2023-05-03T10:13:47;6.67;;;3.40;;
4686;SDS011;2357;47.316;-1.348;2023-05-03T10:16:14;2.47;;;2.37;;
4686;SDS011;2357;47.316;-1.348;2023-05-03T10:18:50;5.00;;;2.90;;
4686;SDS011;2357;47.316;-1.348;2023-05-03T10:21:28;3.33;;;2.53;;
4686;SDS011;2357;47.316;-1.348;2023-05-03T10:24:10;3.40;;;2.67;;
4686;SDS011;2357;47.316;-1.348;2023-05-03T10:26:46;2.33;;;2.10;;
4686;SDS011;2357;47.316;-1.348;2023-05-03T10:31:59;2.70;;;2.43;;
4686;SDS011;2357;47.316;-1.348;2023-05-03T10:34:35;2.40;;;2.27;;
4686;SDS011;2357;47.316;-1.348;2023-05-03T10:37:07;4.40;;;3.00;;
4686;SDS011;2357;47.316;-1.348;2023-05-03T10:39:34;2.23;;;2.10;;
4686;SDS011;2357;47.316;-1.348;2023-05-03T10:42:01;4.17;;;1.90;;
4686;SDS011;2357;47.316;-1.348;2023-05-03T10:44:33;6.13;;;2.10;;
4686;SDS011;2357;47.316;-1.348;2023-05-03T10:47:09;1.83;;;1.53;;
4686;SDS011;2357;47.316;-1.348;2023-05-03T10:49:38;2.30;;;2.20;;
4686;SDS011;2357;47.316;-1.348;2023-05-03T10:52:35;2.80;;;1.63;;
4686;SDS011;2357;47.316;-1.348;2023-05-03T10:54:59;2.33;;;2.13;;
4686;SDS011;2357;47.316;-1.348;2023-05-03T10:57:28;1.97;;;1.87;;
4686;SDS011;2357;47.316;-1.348;2023-05-03T10:59:57;6.20;;;2.10;;
4686;SDS011;2357;47.316;-1.348;2023-05-03T11:02:27;2.17;;;1.93;;
4686;SDS011;2357;47.316;-1.348;2023-05-03T11:04:58;2.97;;;1.90;;
4686;SDS011;2357;47.316;-1.348;2023-05-03T11:07:29;2.00;;;1.90;;
4686;SDS011;2357;47.316;-1.348;2023-05-03T11:09:55;1.70;;;1.60;;
4686;SDS011;2357;47.316;-1.348;2023-05-03T11:12:21;4.00;;;1.93;;
4686;SDS011;2357;47.316;-1.348;2023-05-03T11:14:49;2.70;;;1.93;;
4686;SDS011;2357;47.316;-1.348;2023-05-03T11:17:14;2.53;;;2.00;;
4686;SDS011;2357;47.316;-1.348;2023-05-03T11:19:41;1.53;;;1.40;;
4686;SDS011;2357;47.316;-1.348;2023-05-03T11:22:08;3.20;;;1.90;;
4686;SDS011;2357;47.316;-1.348;2023-05-03T11:24:36;2.60;;;1.77;;
4686;SDS011;2357;47.316;-1.348;2023-05-03T11:27:02;1.80;;;1.70;;
4686;SDS011;2357;47.316;-1.348;2023-05-03T11:29:27;2.13;;;1.93;;
4686;SDS011;2357;47.316;-1.348;2023-05-03T11:31:54;5.00;;;1.77;;
4686;SDS011;2357;47.316;-1.348;2023-05-03T11:34:20;3.10;;;1.90;;
4686;SDS011;2357;47.316;-1.348;2023-05-03T11:36:45;2.87;;;2.00;;
4686;SDS011;2357;47.316;-1.348;2023-05-03T11:39:11;10.30;;;2.10;;
4686;SDS011;2357;47.316;-1.348;2023-05-03T11:41:38;2.03;;;1.93;;
4686;SDS011;2357;47.316;-1.348;2023-05-03T11:44:05;1.70;;;1.60;;
4686;SDS011;2357;47.316;-1.348;2023-05-03T11:46:32;2.30;;;1.90;;
4686;SDS011;2357;47.316;-1.348;2023-05-03T11:49:01;2.03;;;1.93;;
4686;SDS011;2357;47.316;-1.348;2023-05-03T11:51:27;1.50;;;1.40;;
4686;SDS011;2357;47.316;-1.348;2023-05-03T11:53:54;2.20;;;2.00;;
4686;SDS011;2357;47.316;-1.348;2023-05-03T11:56:20;7.00;;;1.90;;
4686;SDS011;2357;47.316;-1.348;2023-05-03T11:58:54;4.77;;;1.90;;
4686;SDS011;2357;47.316;-1.348;2023-05-03T12:01:24;2.00;;;1.90;;
4686;SDS011;2357;47.316;-1.348;2023-05-03T12:03:55;2.03;;;1.93;;
4686;SDS011;2357;47.316;-1.348;2023-05-03T12:06:22;2.03;;;1.80;;
4686;SDS011;2357;47.316;-1.348;2023-05-03T12:08:48;4.47;;;2.50;;
4686;SDS011;2357;47.316;-1.348;2023-05-03T12:11:14;1.43;;;1.43;;
4686;SDS011;2357;47.316;-1.348;2023-05-03T12:13:40;1.80;;;1.70;;
4686;SDS011;2357;47.316;-1.348;2023-05-03T12:16:07;2.63;;;1.90;;
4686;SDS011;2357;47.316;-1.348;2023-05-03T12:21:15;2.30;;;2.20;;
4686;SDS011;2357;47.316;-1.348;2023-05-03T12:23:42;5.90;;;2.00;;
4686;SDS011;2357;47.316;-1.348;2023-05-03T12:26:07;5.23;;;1.63;;
4686;SDS011;2357;47.316;-1.348;2023-05-03T12:28:33;3.13;;;2.43;;
4686;SDS011;2357;47.316;-1.348;2023-05-03T12:30:59;3.87;;;1.90;;
4686;SDS011;2357;47.316;-1.348;2023-05-03T12:33:24;3.63;;;1.60;;
4686;SDS011;2357;47.316;-1.348;2023-05-03T12:35:50;3.33;;;1.77;;
4686;SDS011;2357;47.316;-1.348;2023-05-03T12:38:16;2.33;;;1.60;;
4686;SDS011;2357;47.316;-1.348;2023-05-03T12:40:41;1.83;;;1.73;;
4686;SDS011;2357;47.316;-1.348;2023-05-03T12:43:09;5.30;;;2.30;;
4686;SDS011;2357;47.316;-1.348;2023-05-03T12:45:34;2.77;;;1.70;;
4686;SDS011;2357;47.316;-1.348;2023-05-03T12:48:00;1.63;;;1.63;;
4686;SDS011;2357;47.316;-1.348;2023-05-03T12:50:26;1.40;;;1.40;;
4686;SDS011;2357;47.316;-1.348;2023-05-03T12:52:52;2.10;;;2.00;;
4686;SDS011;2357;47.316;-1.348;2023-05-03T12:55:18;3.13;;;2.13;;
4686;SDS011;2357;47.316;-1.348;2023-05-03T12:57:43;9.33;;;2.00;;
4686;SDS011;2357;47.316;-1.348;2023-05-03T13:00:09;5.90;;;2.50;;
4686;SDS011;2357;47.316;-1.348;2023-05-03T13:02:35;2.30;;;1.60;;
4686;SDS011;2357;47.316;-1.348;2023-05-03T13:05:01;1.40;;;1.30;;
4686;SDS011;2357;47.316;-1.348;2023-05-03T13:07:27;1.50;;;1.40;;
4686;SDS011;2357;47.316;-1.348;2023-05-03T13:09:54;1.83;;;1.67;;
4686;SDS011;2357;47.316;-1.348;2023-05-03T13:12:20;2.50;;;1.60;;
4686;SDS011;2357;47.316;-1.348;2023-05-03T13:14:47;2.23;;;1.50;;
4686;SDS011;2357;47.316;-1.348;2023-05-03T13:17:14;1.30;;;1.20;;
4686;SDS011;2357;47.316;-1.348;2023-05-03T13:19:43;2.33;;;1.63;;
4686;SDS011;2357;47.316;-1.348;2023-05-03T13:22:09;1.30;;;1.30;;
4686;SDS011;2357;47.316;-1.348;2023-05-03T13:24:37;4.33;;;1.20;;
4686;SDS011;2357;47.316;-1.348;2023-05-03T13:27:03;1.07;;;1.07;;
4686;SDS011;2357;47.316;-1.348;2023-05-03T13:29:29;1.10;;;1.10;;
4686;SDS011;2357;47.316;-1.348;2023-05-03T13:31:55;1.20;;;1.10;;
4686;SDS011;2357;47.316;-1.348;2023-05-03T13:34:21;1.43;;;1.23;;
4686;SDS011;2357;47.316;-1.348;2023-05-03T13:36:46;1.40;;;1.33;;
4686;SDS011;2357;47.316;-1.348;2023-05-03T13:39:12;7.93;;;2.37;;
4686;SDS011;2357;47.316;-1.348;2023-05-03T13:41:38;1.40;;;1.20;;
4686;SDS011;2357;47.316;-1.348;2023-05-03T13:44:06;2.97;;;1.63;;
4686;SDS011;2357;47.316;-1.348;2023-05-03T13:46:34;1.00;;;1.00;;
4686;SDS011;2357;47.316;-1.348;2023-05-03T13:49:01;2.10;;;1.53;;
4686;SDS011;2357;47.316;-1.348;2023-05-03T13:51:29;1.23;;;1.13;;
4686;SDS011;2357;47.316;-1.348;2023-05-03T13:53:57;1.70;;;1.60;;
4686;SDS011;2357;47.316;-1.348;2023-05-03T13:56:23;4.53;;;1.47;;
4686;SDS011;2357;47.316;-1.348;2023-05-03T13:58:50;10.90;;;1.47;;
4686;SDS011;2357;47.316;-1.348;2023-05-03T14:01:15;5.27;;;1.47;;
4686;SDS011;2357;47.316;-1.348;2023-05-03T14:03:41;2.60;;;1.43;;
4686;SDS011;2357;47.316;-1.348;2023-05-03T14:06:08;3.33;;;1.33;;
4686;SDS011;2357;47.316;-1.348;2023-05-03T14:08:33;11.10;;;1.30;;
4686;SDS011;2357;47.316;-1.348;2023-05-03T14:10:59;1.53;;;1.43;;
4686;SDS011;2357;47.316;-1.348;2023-05-03T14:13:25;1.70;;;1.60;;
4686;SDS011;2357;47.316;-1.348;2023-05-03T14:15:52;2.60;;;1.90;;
4686;SDS011;2357;47.316;-1.348;2023-05-03T14:18:18;1.87;;;1.77;;
4686;SDS011;2357;47.316;-1.348;2023-05-03T14:20:44;1.17;;;1.10;;
4686;SDS011;2357;47.316;-1.348;2023-05-03T14:23:11;1.87;;;1.70;;
4686;SDS011;2357;47.316;-1.348;2023-05-03T14:25:36;25.97;;;2.13;;
4686;SDS011;2357;47.316;-1.348;2023-05-03T14:28:02;3.70;;;1.97;;
4686;SDS011;2357;47.316;-1.348;2023-05-03T14:30:29;9.80;;;2.57;;
4686;SDS011;2357;47.316;-1.348;2023-05-03T14:32:55;2.70;;;1.70;;
4686;SDS011;2357;47.316;-1.348;2023-05-03T14:35:22;2.40;;;2.20;;
4686;SDS011;2357;47.316;-1.348;2023-05-03T14:37:47;1.40;;;1.30;;
4686;SDS011;2357;47.316;-1.348;2023-05-03T14:40:13;1.80;;;1.20;;
4686;SDS011;2357;47.316;-1.348;2023-05-03T14:42:40;7.50;;;3.43;;
4686;SDS011;2357;47.316;-1.348;2023-05-03T14:45:06;6.13;;;1.80;;
4686;SDS011;2357;47.316;-1.348;2023-05-03T14:47:32;3.57;;;2.27;;
4686;SDS011;2357;47.316;-1.348;2023-05-03T14:49:58;4.50;;;2.07;;
4686;SDS011;2357;47.316;-1.348;2023-05-03T14:52:25;5.87;;;2.43;;
4686;SDS011;2357;47.316;-1.348;2023-05-03T14:54:51;1.50;;;1.40;;
4686;SDS011;2357;47.316;-1.348;2023-05-03T14:57:17;14.97;;;1.37;;
4686;SDS011;2357;47.316;-1.348;2023-05-03T14:59:43;1.27;;;1.27;;
4686;SDS011;2357;47.316;-1.348;2023-05-03T15:02:09;8.90;;;1.23;;
4686;SDS011;2357;47.316;-1.348;2023-05-03T15:04:38;1.50;;;1.40;;
4686;SDS011;2357;47.316;-1.348;2023-05-03T15:07:03;1.20;;;1.10;;
4686;SDS011;2357;47.316;-1.348;2023-05-03T15:09:31;1.63;;;1.37;;
4686;SDS011;2357;47.316;-1.348;2023-05-03T15:11:57;1.33;;;1.27;;
4686;SDS011;2357;47.316;-1.348;2023-05-03T15:14:23;2.60;;;1.43;;
4686;SDS011;2357;47.316;-1.348;2023-05-03T15:16:49;2.70;;;1.20;;